Time;durP1;ratioP1;P1;durP2;ratioP2;P2;SDS_P1;SDS_P2;PMS_P1;PMS_P2;Temp;Humidity;BMP_temperature;BMP_pressure;BME280_temperature;BME280_humidity;BME280_pressure;Samples;Min_cycle;Max_cycle;Signal;HPM_P1;HPM_P2
2023/08/15 00:02:05;;;;;;;4.87;3.87;;;24.30;99.90;;;24.90;88.41;100401.34;4988741;28;20642;-66
2023/08/15 00:04:32;;;;;;;4.40;3.97;;;24.30;99.90;;;24.89;88.52;100402.38;4983320;28;20646;-67
2023/08/15 00:06:59;;;;;;;4.40;4.00;;;24.30;99.90;;;24.89;87.99;100405.03;4988386;28;20749;-67
2023/08/15 00:09:26;;;;;;;3.90;3.60;;;24.30;99.90;;;24.84;87.86;100404.84;4990525;28;20654;-67
2023/08/15 00:11:53;;;;;;;5.23;4.57;;;24.30;99.90;;;24.81;87.75;100408.75;4990024;28;21067;-67
2023/08/15 00:14:19;;;;;;;4.90;4.40;;;24.20;99.90;;;24.80;87.89;100401.78;4989220;28;20730;-67
2023/08/15 00:16:46;;;;;;;4.30;3.90;;;24.20;99.90;;;24.79;87.96;100402.00;4986405;28;20644;-68
2023/08/15 00:19:13;;;;;;;4.87;4.37;;;24.20;99.90;;;24.78;87.68;100401.16;4984772;28;20654;-67
2023/08/15 00:21:41;;;;;;;3.77;3.50;;;24.20;99.90;;;24.76;88.38;100397.06;4987374;28;21222;-68
2023/08/15 00:24:08;;;;;;;3.90;3.60;;;24.20;99.90;;;24.72;88.09;100399.31;4989137;28;20684;-67
2023/08/15 00:26:35;;;;;;;4.03;3.70;;;24.10;99.90;;;24.68;88.59;100393.53;4989680;28;20722;-67
2023/08/15 00:29:02;;;;;;;4.03;3.63;;;24.10;99.90;;;24.64;88.77;100394.97;4990744;28;21100;-67
2023/08/15 00:31:28;;;;;;;3.93;3.63;;;24.10;99.90;;;24.62;89.03;100399.69;4991101;28;21079;-68
2023/08/15 00:33:55;;;;;;;3.87;3.47;;;24.10;99.90;;;24.60;88.94;100395.59;4984261;28;20691;-67
2023/08/15 00:36:22;;;;;;;4.27;3.50;;;24.00;99.90;;;24.55;89.01;100398.88;4981338;28;20629;-67
2023/08/15 00:38:49;;;;;;;4.10;3.70;;;24.00;99.90;;;24.54;89.29;100394.59;4988911;28;20756;-67
2023/08/15 00:41:16;;;;;;;4.33;3.93;;;24.00;99.90;;;24.52;90.03;100385.16;4989928;28;20713;-67
2023/08/15 00:43:43;;;;;;;6.53;4.60;;;24.00;99.90;;;24.48;89.87;100397.25;4988687;28;20652;-67
2023/08/15 00:46:10;;;;;;;4.53;4.13;;;23.90;99.90;;;24.46;90.62;100381.47;4989579;28;20634;-68
2023/08/15 00:48:37;;;;;;;5.43;3.70;;;23.90;99.90;;;24.47;90.20;100388.44;4987567;28;21540;-67
2023/08/15 00:51:05;;;;;;;4.07;3.73;;;23.90;99.90;;;24.48;90.17;100379.41;4990514;28;21180;-68
2023/08/15 00:53:39;;;;;;;3.50;3.30;;;23.90;99.90;;;24.48;90.13;100379.41;4986843;28;20701;-67
2023/08/15 00:56:07;;;;;;;3.87;3.57;;;23.90;99.90;;;24.47;89.90;100376.94;4987675;28;21191;-65
2023/08/15 00:58:34;;;;;;;3.93;3.53;;;23.90;99.90;;;24.45;89.70;100377.16;4983688;28;20654;-68
2023/08/15 01:01:02;;;;;;;4.27;3.90;;;23.90;99.90;;;24.44;89.67;100375.53;4988806;28;20631;-67
2023/08/15 01:03:30;;;;;;;3.77;3.47;;;23.90;99.90;;;24.46;88.97;100373.47;4989064;28;20737;-67
2023/08/15 01:05:57;;;;;;;4.27;3.87;;;23.90;99.90;;;24.45;89.08;100369.16;4988868;28;20653;-66
2023/08/15 01:08:24;;;;;;;4.47;3.73;;;23.90;99.90;;;24.43;88.94;100362.38;4989117;28;20648;-68
2023/08/15 01:10:50;;;;;;;3.83;3.50;;;23.90;99.90;;;24.39;88.83;100366.47;4989206;28;20642;-67
2023/08/15 01:13:40;;;;;;;3.37;3.07;;;23.80;99.90;;;24.36;89.51;100367.72;4990476;28;20729;-67
2023/08/15 01:16:17;;;;;;;3.77;3.37;;;23.80;99.90;;;24.29;89.12;100363.41;5005049;28;21047;-66
2023/08/15 01:19:15;;;;;;;4.43;4.00;;;23.80;99.90;;;24.16;89.63;100358.91;4988284;28;20669;-68
2023/08/15 01:21:48;;;;;;;3.90;3.60;;;23.60;99.90;;;24.08;90.36;100367.09;4988792;28;20717;-66
2023/08/15 01:24:15;;;;;;;4.73;4.33;;;23.50;99.90;;;24.05;91.20;100366.66;4988000;28;20652;-66
2023/08/15 01:26:42;;;;;;;3.80;3.50;;;23.50;99.90;;;24.05;91.19;100380.00;4988894;28;21213;-68
2023/08/15 01:29:09;;;;;;;3.47;3.00;;;23.50;99.90;;;24.03;91.02;100376.69;4989900;28;20646;-67
2023/08/15 01:31:43;;;;;;;4.33;3.93;;;23.50;99.90;;;23.97;91.50;100377.50;4986296;28;20733;-67
2023/08/15 01:34:22;;;;;;;5.37;4.00;;;23.40;99.90;;;23.96;92.01;100379.34;4990213;28;20672;-67
2023/08/15 01:36:57;;;;;;;5.17;3.50;;;23.40;99.90;;;23.96;92.16;100363.34;4988035;28;20717;-67
2023/08/15 01:39:29;;;;;;;6.63;3.13;;;23.40;99.90;;;23.97;91.93;100375.66;4989280;28;20638;-66
2023/08/15 01:42:00;;;;;;;6.23;3.90;;;23.40;99.90;;;23.99;92.06;100381.59;4987236;28;20642;-67
2023/08/15 01:44:29;;;;;;;3.53;3.23;;;23.40;99.90;;;24.02;92.35;100375.88;4989422;28;20638;-66
2023/08/15 01:46:57;;;;;;;3.70;3.40;;;23.40;99.90;;;24.02;92.00;100370.56;4986456;28;20642;-67
2023/08/15 01:49:24;;;;;;;4.87;4.00;;;23.40;99.90;;;24.01;92.26;100374.22;4992666;28;20654;-69
2023/08/15 01:51:51;;;;;;;4.33;3.93;;;23.40;99.90;;;24.03;92.64;100384.69;4990119;28;20733;-65
2023/08/15 01:54:18;;;;;;;8.20;4.23;;;23.50;99.90;;;24.01;91.93;100387.56;4987297;28;20772;-69
2023/08/15 01:56:45;;;;;;;4.33;3.50;;;23.40;99.90;;;23.99;91.01;100394.09;4986376;28;20674;-67
2023/08/15 01:59:12;;;;;;;4.73;3.70;;;23.40;99.90;;;23.96;90.39;100391.88;4989662;28;20689;-66
2023/08/15 02:01:39;;;;;;;3.23;2.93;;;23.40;99.90;;;23.94;90.53;100386.72;4992392;28;20630;-68
2023/08/15 02:04:06;;;;;;;4.30;3.43;;;23.40;99.90;;;23.91;90.19;100382.59;4989194;28;20645;-67
2023/08/15 02:06:33;;;;;;;3.50;3.20;;;23.40;99.90;;;23.89;90.64;100386.53;4993263;28;21095;-67
2023/08/15 02:09:00;;;;;;;3.50;3.20;;;23.40;99.90;;;23.83;91.18;100398.78;4986407;28;21210;-66
2023/08/15 02:11:27;;;;;;;3.73;3.43;;;23.30;99.90;;;23.77;91.65;100406.75;4989161;28;20648;-67
2023/08/15 02:13:54;;;;;;;4.47;3.97;;;23.20;99.90;;;23.72;92.21;100415.34;4989636;28;21288;-67
2023/08/15 02:16:21;;;;;;;4.03;3.60;;;23.20;99.90;;;23.71;91.75;100442.19;4990240;28;20641;-68
2023/08/15 02:18:48;;;;;;;3.33;3.03;;;23.10;99.90;;;23.72;92.47;100462.50;4989411;28;20685;-67
2023/08/15 02:21:18;;;;;;;3.73;3.43;;;23.20;99.90;;;23.75;92.15;100456.75;4991541;28;20637;-68
2023/08/15 02:23:45;;;;;;;5.30;4.10;;;23.20;99.90;;;23.72;92.69;100434.00;4989965;28;20652;-68
2023/08/15 02:26:12;;;;;;;7.23;4.50;;;23.20;99.90;;;23.70;92.61;100443.25;4989581;28;20777;-67
2023/08/15 02:28:39;;;;;;;4.83;3.83;;;23.10;99.90;;;23.71;93.48;100460.84;4991744;28;20748;-67
2023/08/15 02:31:05;;;;;;;4.33;3.77;;;23.10;99.90;;;23.70;92.86;100443.25;4990285;28;21093;-69
2023/08/15 02:33:33;;;;;;;4.03;3.63;;;23.20;99.90;;;23.72;92.98;100465.16;4991612;28;20670;-68
2023/08/15 02:36:05;;;;;;;6.27;4.17;;;23.20;99.90;;;23.69;92.64;100474.38;4989269;28;20641;-66
2023/08/15 02:38:34;;;;;;;4.67;4.00;;;23.10;99.90;;;23.66;93.18;100458.78;4993359;28;20737;-66
2023/08/15 02:41:01;;;;;;;5.33;4.43;;;23.10;99.90;;;23.65;92.89;100456.31;4988211;28;20704;-67
2023/08/15 02:43:28;;;;;;;4.13;3.80;;;23.10;99.90;;;23.67;93.38;100454.28;4992131;28;20645;-66
2023/08/15 02:45:56;;;;;;;5.37;4.07;;;23.10;99.90;;;23.68;93.25;100443.41;4986127;28;20648;-67
2023/08/15 02:48:22;;;;;;;5.47;4.57;;;23.10;99.90;;;23.70;92.88;100435.25;5007252;28;21265;-66
2023/08/15 02:50:49;;;;;;;4.93;4.43;;;23.10;99.90;;;23.70;92.77;100427.25;4984326;28;20681;-67
2023/08/15 02:53:16;;;;;;;4.50;4.00;;;23.20;99.90;;;23.73;93.07;100429.50;4990887;28;20662;-67
2023/08/15 02:55:43;;;;;;;5.13;4.50;;;23.20;99.90;;;23.71;92.89;100419.06;4989423;28;20672;-64
2023/08/15 02:58:10;;;;;;;4.73;4.33;;;23.20;99.90;;;23.70;92.22;100406.75;4992736;28;20658;-66
2023/08/15 03:00:37;;;;;;;6.37;4.80;;;23.20;99.90;;;23.69;92.67;100402.44;4991809;28;20630;-65
2023/08/15 03:03:04;;;;;;;4.47;4.07;;;23.20;99.90;;;23.70;93.15;100384.63;4989870;28;21300;-67
2023/08/15 03:05:31;;;;;;;4.20;3.80;;;23.10;99.90;;;23.69;92.93;100382.97;4991004;28;20638;-68
2023/08/15 03:07:58;;;;;;;4.37;4.00;;;23.10;99.90;;;23.69;92.32;100388.31;4989887;28;20645;-67
2023/08/15 03:10:25;;;;;;;4.30;3.90;;;23.10;99.90;;;23.68;91.82;100386.69;4991526;28;20670;-66
2023/08/15 03:12:52;;;;;;;6.33;4.57;;;23.10;99.90;;;23.65;91.32;100387.06;4977904;28;20666;-67
2023/08/15 03:15:19;;;;;;;5.60;4.17;;;23.10;99.90;;;23.64;91.65;100393.41;4987056;28;20615;-66
2023/08/15 03:17:45;;;;;;;5.10;4.27;;;23.10;99.90;;;23.67;90.82;100395.69;4989931;28;20670;-68
2023/08/15 03:20:13;;;;;;;5.87;4.27;;;23.10;99.90;;;23.66;91.60;100383.41;4992293;28;20642;-65
2023/08/15 03:22:44;;;;;;;6.97;4.93;;;23.10;99.90;;;23.68;92.12;100376.03;4991378;28;20717;-66
2023/08/15 03:25:11;;;;;;;5.67;4.67;;;23.10;99.90;;;23.68;91.55;100376.03;4992451;28;21101;-65
2023/08/15 03:27:38;;;;;;;5.63;4.83;;;23.10;99.90;;;23.69;91.70;100391.78;4989477;28;20638;-65
2023/08/15 03:30:06;;;;;;;5.80;4.90;;;23.10;99.90;;;23.68;91.55;100389.34;4991799;28;20737;-67
2023/08/15 03:32:33;;;;;;;4.80;4.40;;;23.10;99.90;;;23.67;91.02;100398.34;4985698;28;20646;-65
2023/08/15 03:35:00;;;;;;;5.50;4.93;;;23.10;99.90;;;23.68;90.56;100402.66;4992008;28;20744;-68
2023/08/15 03:37:27;;;;;;;8.10;4.47;;;23.10;99.90;;;23.70;90.28;100395.28;4984285;28;20689;-67
2023/08/15 03:39:53;;;;;;;5.43;3.80;;;23.20;99.90;;;23.70;90.59;100401.41;4991598;28;21118;-66
2023/08/15 03:42:20;;;;;;;5.57;3.80;;;23.20;99.90;;;23.73;90.25;100405.53;4989828;28;21000;-66
2023/08/15 03:44:47;;;;;;;5.03;4.53;;;23.20;99.90;;;23.73;90.05;100409.00;4989816;28;20653;-66
2023/08/15 03:47:14;;;;;;;5.80;5.20;;;23.20;99.90;;;23.76;89.80;100419.28;4988923;28;20734;-68
2023/08/15 03:49:41;;;;;;;5.23;4.73;;;23.20;99.90;;;23.77;89.60;100422.75;4989214;28;20662;-67
2023/08/15 03:52:08;;;;;;;9.80;6.10;;;23.20;99.90;;;23.78;89.76;100429.72;4989874;28;21333;-66
2023/08/15 03:54:35;;;;;;;5.97;5.37;;;23.20;99.90;;;23.80;90.22;100446.34;4989184;28;20685;-67
2023/08/15 03:57:02;;;;;;;6.53;5.53;;;23.20;99.90;;;23.80;90.20;100449.00;4990283;28;20629;-67
2023/08/15 03:59:29;;;;;;;5.80;4.67;;;23.20;99.90;;;23.80;90.37;100479.13;4988880;28;20665;-67
2023/08/15 04:01:55;;;;;;;4.40;4.00;;;23.20;99.90;;;23.81;90.29;100514.56;4989461;28;21274;-66
2023/08/15 04:04:25;;;;;;;4.33;3.90;;;23.30;99.90;;;23.80;91.08;100532.41;4991093;28;20634;-66
2023/08/15 04:06:52;;;;;;;4.13;3.73;;;23.30;99.90;;;23.78;90.72;100526.47;4989800;28;20737;-67
2023/08/15 04:09:19;;;;;;;5.00;4.50;;;23.30;99.90;;;23.70;91.07;100518.63;4984915;28;20728;-65
2023/08/15 04:11:45;;;;;;;6.07;4.93;;;23.20;99.90;;;23.66;91.90;100516.56;4988669;28;20716;-67
2023/08/15 04:14:12;;;;;;;10.17;5.77;;;23.10;99.90;;;23.63;92.96;100544.44;4988045;28;20697;-67
2023/08/15 04:16:39;;;;;;;4.60;4.13;;;23.10;99.90;;;23.60;92.59;100554.63;4988108;28;20638;-67
2023/08/15 04:19:06;;;;;;;5.90;5.30;;;23.10;99.90;;;23.55;93.53;100539.22;4987768;28;21026;-66
2023/08/15 04:21:33;;;;;;;8.50;5.77;;;23.00;99.90;;;23.54;93.62;100545.59;4990100;28;20654;-67
2023/08/15 04:24:00;;;;;;;6.00;5.40;;;23.00;99.90;;;23.51;93.91;100555.81;4979989;28;20634;-65
2023/08/15 04:26:27;;;;;;;7.33;4.53;;;23.00;99.90;;;23.46;94.44;100564.41;4976152;28;20731;-67
2023/08/15 04:28:54;;;;;;;7.67;5.50;;;23.00;99.90;;;23.45;94.77;100546.75;4975610;28;21251;-65
2023/08/15 04:31:21;;;;;;;6.67;5.20;;;22.90;99.90;;;23.47;93.98;100559.91;4975857;28;20697;-68
2023/08/15 04:33:48;;;;;;;8.20;3.60;;;22.90;99.90;;;23.47;92.90;100560.69;4980865;28;21245;-67
2023/08/15 04:36:14;;;;;;;4.40;3.20;;;22.90;99.90;;;23.47;92.11;100552.72;4984510;28;20637;-64
2023/08/15 04:38:41;;;;;;;3.37;3.10;;;23.00;99.90;;;23.51;91.65;100553.16;4978098;28;20657;-67
2023/08/15 04:41:08;;;;;;;4.00;3.60;;;23.00;99.90;;;23.50;91.09;100552.34;4989750;28;20737;-67
2023/08/15 04:43:35;;;;;;;3.80;3.50;;;23.00;99.90;;;23.51;90.63;100545.97;4986221;28;21286;-67
2023/08/15 04:46:02;;;;;;;4.10;3.70;;;23.00;99.90;;;23.55;90.35;100557.88;4989010;28;20721;-66
2023/08/15 04:48:29;;;;;;;4.67;4.20;;;23.00;99.90;;;23.58;90.19;100562.81;4988130;28;20805;-68
2023/08/15 04:50:56;;;;;;;5.03;3.87;;;23.00;99.90;;;23.62;89.14;100550.75;4989640;28;20662;-67
2023/08/15 04:53:23;;;;;;;4.40;3.47;;;23.10;99.90;;;23.64;88.55;100561.19;4989891;28;20789;-67
2023/08/15 04:55:49;;;;;;;3.57;3.10;;;23.10;99.90;;;23.69;88.49;100558.78;4987827;28;20648;-65
2023/08/15 04:58:16;;;;;;;2.80;2.67;;;23.10;99.90;;;23.73;87.44;100544.06;4990464;28;20678;-67
2023/08/15 05:00:44;;;;;;;3.00;2.80;;;23.10;99.90;;;23.78;86.39;100537.13;4987275;28;20860;-64
2023/08/15 05:03:11;;;;;;;2.50;2.40;;;23.20;99.90;;;23.86;86.21;100552.94;4987986;28;20669;-66
2023/08/15 05:05:38;;;;;;;2.60;2.50;;;23.30;99.90;;;24.03;86.14;100553.41;4988609;28;20633;-67
2023/08/15 05:08:12;;;;;;;2.57;2.37;;;23.40;99.90;;;24.28;84.82;100559.06;4989893;28;20638;-66
2023/08/15 05:10:39;;;;;;;2.33;2.20;;;23.70;99.90;;;24.52;82.53;100540.69;4988648;28;21097;-66
2023/08/15 05:13:06;;;;;;;3.00;2.70;;;23.90;99.90;;;24.77;80.61;100548.13;5003299;28;20724;-66
2023/08/15 05:15:33;;;;;;;2.07;1.97;;;24.20;99.90;;;25.00;79.29;100548.56;4987568;28;20646;-65
2023/08/15 05:18:00;;;;;;;2.20;2.10;;;24.40;99.90;;;25.23;77.60;100551.63;4987699;28;20646;-65
2023/08/15 05:20:27;;;;;;;1.80;1.70;;;24.60;99.90;;;25.46;76.35;100549.34;4988269;28;20623;-64
2023/08/15 05:22:54;;;;;;;2.27;2.17;;;24.80;99.90;;;25.57;75.34;100526.50;4981651;28;20686;-64
2023/08/15 05:25:21;;;;;;;2.20;2.10;;;25.00;99.90;;;25.60;75.17;100518.88;4991310;28;20653;-66
2023/08/15 05:27:51;;;;;;;1.90;1.80;;;25.00;99.90;;;25.59;74.37;100521.78;4992574;28;20690;-66
2023/08/15 05:30:18;;;;;;;1.83;1.73;;;25.00;99.90;;;25.45;74.29;100518.31;4991173;28;20672;-66
2023/08/15 05:32:45;;;;;;;1.90;1.80;;;25.00;99.90;;;25.43;75.18;100509.69;4988899;28;22688;-65
2023/08/15 05:35:12;;;;;;;2.27;2.00;;;24.90;99.90;;;25.49;75.12;100514.19;4991045;28;20682;-67
2023/08/15 05:37:39;;;;;;;4.30;2.07;;;24.90;99.90;;;25.63;74.56;100515.81;4985075;28;20643;-66
2023/08/15 05:40:07;;;;;;;2.20;2.00;;;25.00;99.90;;;25.85;74.08;100517.16;4990118;28;20638;-65
2023/08/15 05:42:34;;;;;;;2.23;2.07;;;25.20;99.90;;;25.87;73.48;100512.44;4991452;28;21068;-65
2023/08/15 05:45:01;;;;;;;1.80;1.70;;;25.30;99.90;;;25.86;74.05;100509.97;4992573;28;20638;-66
2023/08/15 05:47:28;;;;;;;3.73;1.73;;;25.30;99.90;;;26.01;73.27;100519.34;4985400;28;20648;-67
2023/08/15 05:49:55;;;;;;;1.97;1.87;;;25.40;99.90;;;26.33;72.25;100516.75;4988356;28;21573;-65
2023/08/15 05:52:22;;;;;;;1.90;1.80;;;25.70;99.90;;;26.67;70.47;100521.66;4991011;28;20681;-68
2023/08/15 05:54:49;;;;;;;2.40;1.97;;;26.00;99.90;;;27.01;68.56;100517.69;4993714;28;20670;-67
2023/08/15 05:57:16;;;;;;;1.97;1.87;;;26.30;99.90;;;27.10;67.96;100516.38;4991659;28;20734;-66
2023/08/15 05:59:43;;;;;;;1.73;1.63;;;26.50;99.90;;;26.96;68.63;100513.00;4993953;28;20659;-67
2023/08/15 06:02:11;;;;;;;2.30;2.10;;;26.40;99.90;;;26.97;68.42;100517.31;4989043;28;20650;-65
2023/08/15 06:04:38;;;;;;;2.73;2.53;;;26.40;99.90;;;27.02;68.65;100519.34;4993243;28;20626;-67
2023/08/15 06:07:05;;;;;;;3.13;2.50;;;26.40;99.90;;;27.42;69.01;100526.00;4990273;28;20650;-67
2023/08/15 06:09:32;;;;;;;2.60;2.40;;;26.70;99.90;;;28.22;66.32;100532.88;4992462;28;20654;-67
2023/08/15 06:11:59;;;;;;;2.13;2.03;;;27.40;99.90;;;29.07;63.49;100537.78;4989704;28;20670;-66
2023/08/15 06:14:26;;;;;;;2.20;2.03;;;28.20;99.90;;;29.87;60.61;100532.59;4990135;28;21283;-66
2023/08/15 06:16:53;;;;;;;2.80;2.60;;;29.00;99.90;;;30.50;58.49;100532.47;4989714;28;20758;-66
2023/08/15 06:19:20;;;;;;;2.77;2.57;;;29.70;99.90;;;30.97;55.65;100519.53;4981984;28;21067;-64
2023/08/15 06:21:47;;;;;;;2.60;2.27;;;30.30;99.90;;;31.14;55.71;100525.72;4986999;28;20733;-67
2023/08/15 06:24:14;;;;;;;2.10;1.90;;;30.50;99.90;;;31.46;55.20;100520.56;4987760;28;20677;-67
2023/08/15 06:26:41;;;;;;;3.00;2.10;;;30.80;99.90;;;31.79;53.93;100523.97;4991297;28;20638;-68
2023/08/15 06:29:08;;;;;;;2.20;2.10;;;31.10;99.90;;;32.05;52.87;100525.13;4982869;28;20662;-66
2023/08/15 06:31:36;;;;;;;2.30;2.20;;;31.30;99.90;;;32.55;52.47;100531.03;4993282;28;20728;-67
2023/08/15 06:34:03;;;;;;;3.37;2.67;;;31.80;99.90;;;33.23;51.15;100519.44;4991316;28;20790;-67
2023/08/15 06:36:31;;;;;;;2.67;2.57;;;32.40;99.90;;;33.96;49.37;100520.31;4990109;28;20642;-67
2023/08/15 06:38:59;;;;;;;1.97;1.87;;;33.10;99.90;;;34.76;47.50;100528.63;4992227;28;20646;-66
2023/08/15 06:41:25;;;;;;;2.90;2.80;;;34.00;99.90;;;35.37;45.84;100521.25;4991869;28;20689;-66
2023/08/15 06:43:52;;;;;;;3.10;2.90;;;34.70;99.90;;;35.27;45.60;100521.25;4991292;28;20735;-66
2023/08/15 06:46:19;;;;;;;2.23;2.13;;;34.80;99.20;;;34.70;45.69;100527.00;4990102;28;20638;-67
2023/08/15 06:48:46;;;;;;;3.30;3.10;;;34.30;98.80;;;33.79;48.47;100533.25;4991503;28;20657;-67
2023/08/15 06:51:13;;;;;;;3.07;2.87;;;33.50;99.50;;;33.26;49.33;100535.13;4990232;28;20752;-68
2023/08/15 06:53:44;;;;;;;2.77;2.67;;;32.90;99.90;;;32.84;50.90;100536.94;4987666;28;20649;-67
2023/08/15 06:56:11;;;;;;;7.27;2.70;;;32.40;99.90;;;33.30;50.46;100538.94;4981660;28;20631;-67
2023/08/15 06:58:38;;;;;;;3.40;3.10;;;32.60;99.90;;;34.37;49.07;100549.16;4991871;28;20663;-68
2023/08/15 07:01:06;;;;;;;3.00;2.90;;;33.40;99.90;;;35.62;46.05;100545.59;4983631;28;21171;-68
2023/08/15 07:03:33;;;;;;;3.67;3.47;;;34.50;99.30;;;36.62;43.03;100548.88;4989860;28;21411;-67
2023/08/15 07:06:01;;;;;;;2.60;2.50;;;35.60;97.60;;;37.08;42.14;100549.31;4987856;28;20649;-67
2023/08/15 07:08:28;;;;;;;3.13;2.67;;;36.30;95.50;;;37.57;41.66;100543.66;4990642;28;20661;-67
2023/08/15 07:10:56;;;;;;;3.53;3.23;;;36.80;94.80;;;37.89;40.65;100536.47;4978908;28;20713;-70
2023/08/15 07:13:23;;;;;;;3.63;2.90;;;37.20;93.30;;;37.63;40.52;100537.06;4991808;28;20685;-67
2023/08/15 07:15:57;;;;;;;3.40;3.10;;;37.10;92.40;;;37.28;41.11;100547.22;4990205;28;20733;-68
2023/08/15 07:18:24;;;;;;;2.17;1.97;;;36.80;92.30;;;37.42;40.63;100549.28;4992628;28;20704;-67
2023/08/15 07:20:52;;;;;;;3.67;2.80;;;36.90;91.80;;;37.42;39.33;100555.53;4985151;28;20642;-68
2023/08/15 07:23:20;;;;;;;2.70;2.47;;;36.90;90.60;;;37.88;39.17;100567.53;4993030;28;20622;-68
2023/08/15 07:25:47;;;;;;;2.30;2.20;;;37.20;90.50;;;38.27;38.73;100570.00;4992065;28;20626;-68
2023/08/15 07:28:14;;;;;;;2.53;2.33;;;37.60;89.20;;;38.55;38.52;100560.84;4990447;28;20674;-67
2023/08/15 07:30:45;;;;;;;2.73;2.53;;;37.90;88.10;;;38.74;37.55;100569.84;4992331;28;20630;-67
2023/08/15 07:33:13;;;;;;;2.97;2.77;;;38.10;86.20;;;38.92;37.60;100581.84;4990285;28;20701;-67
2023/08/15 07:35:41;;;;;;;2.70;2.50;;;38.20;85.30;;;39.10;37.81;100575.50;4992179;28;20666;-67
2023/08/15 07:38:08;;;;;;;2.97;2.70;;;38.50;84.40;;;39.39;36.56;100575.28;4990668;28;20745;-67
2023/08/15 07:40:35;;;;;;;2.30;2.20;;;38.80;82.70;;;39.54;36.36;100573.06;4993441;28;20637;-67
2023/08/15 07:43:02;;;;;;;2.70;2.50;;;39.00;81.60;;;39.65;36.15;100586.53;4990683;28;21165;-67
2023/08/15 07:45:29;;;;;;;2.40;2.27;;;39.20;80.50;;;39.71;35.88;100583.41;4989839;28;21008;-66
2023/08/15 07:47:58;;;;;;;2.10;2.00;;;39.20;79.60;;;39.71;35.87;100579.88;4987939;28;20717;-67
2023/08/15 07:50:28;;;;;;;2.40;2.20;;;39.30;78.70;;;39.41;35.92;100575.78;4992707;28;20730;-67
2023/08/15 07:52:59;;;;;;;2.27;2.10;;;39.10;77.80;;;39.65;35.82;100572.88;4990154;28;21229;-69
2023/08/15 07:55:27;;;;;;;2.17;2.03;;;39.20;77.30;;;39.73;35.93;100563.97;4993006;28;20724;-65
2023/08/15 07:57:57;;;;;;;2.37;2.20;;;39.30;76.90;;;40.13;35.51;100565.84;4989244;28;20657;-65
2023/08/15 08:00:24;;;;;;;2.20;2.10;;;39.80;76.20;;;40.47;35.27;100570.84;4989666;28;20681;-68
2023/08/15 08:02:52;;;;;;;2.40;2.20;;;40.20;75.30;;;40.97;34.48;100566.88;4981235;28;20690;-68
2023/08/15 08:05:19;;;;;;;2.07;1.97;;;40.70;74.10;;;41.25;33.42;100570.28;4988341;28;20666;-68
2023/08/15 08:07:49;;;;;;;2.10;2.10;;;;;;;41.62;33.16;100569.78;4990433;28;20633;-68
2023/08/15 08:10:16;;;;;;;2.20;2.20;;;41.30;70.30;;;41.76;32.93;100573.25;4988831;28;20642;-70
2023/08/15 08:12:45;;;;;;;2.37;2.17;;;41.60;70.00;;;41.95;32.10;100575.69;4989798;28;21118;-67
2023/08/15 08:15:13;;;;;;;2.03;2.03;;;41.90;69.10;;;42.21;31.80;100585.56;4990638;28;20666;-69
2023/08/15 08:17:40;;;;;;;2.10;2.00;;;42.20;67.80;;;42.61;31.47;100585.44;4979344;28;20645;-71
2023/08/15 08:20:12;;;;;;;2.37;2.27;;;42.50;66.60;;;42.75;30.85;100586.88;4989020;28;20680;-66
2023/08/15 08:22:40;;;;;;;1.80;1.80;;;42.70;65.60;;;43.00;31.03;100599.00;4991047;28;21188;-68
2023/08/15 08:25:27;;;;;;;2.83;2.73;;;42.90;65.20;;;43.03;30.56;100607.38;4989337;28;20673;-67
2023/08/15 08:27:54;;;;;;;2.10;2.10;;;43.00;64.10;;;42.77;30.98;100608.50;4987712;28;21085;-66
2023/08/15 08:30:23;;;;;;;2.60;2.50;;;42.80;63.60;;;42.55;31.49;100609.50;4984078;28;20626;-68
2023/08/15 08:32:52;;;;;;;2.17;2.07;;;42.60;63.80;;;42.84;31.50;100603.34;4984946;28;20638;-67
2023/08/15 08:35:19;;;;;;;2.40;2.30;;;42.80;64.30;;;43.30;30.68;100597.16;4983561;28;20676;-67
2023/08/15 08:37:50;;;;;;;1.80;1.70;;;43.10;63.70;;;44.01;29.99;100609.06;4990287;28;20641;-67
2023/08/15 08:40:17;;;;;;;2.13;2.13;;;43.80;62.70;;;43.93;29.76;100610.75;4988451;28;20705;-67
2023/08/15 08:42:45;;;;;;;2.10;2.10;;;44.00;61.30;;;43.89;28.98;100607.84;4991315;28;20721;-68
2023/08/15 08:45:12;;;;;;;2.50;2.37;;;44.00;60.10;;;43.71;29.58;100602.78;4989296;28;20741;-68
2023/08/15 08:47:40;;;;;;;3.10;2.10;;;43.70;60.60;;;42.77;30.48;100605.75;4981479;28;20670;-67
2023/08/15 08:50:09;;;;;;;2.00;2.00;;;43.10;60.40;;;41.71;32.01;100603.50;4988247;28;21020;-68
2023/08/15 08:52:41;;;;;;;3.07;2.40;;;41.90;62.00;;;40.50;33.74;100595.66;4990284;28;20634;-67
2023/08/15 08:55:09;;;;;;;2.63;2.53;;;40.60;63.10;;;39.11;35.36;100596.22;4989897;28;20670;-67
2023/08/15 08:57:36;;;;;;;2.40;2.30;;;39.20;64.90;;;38.96;36.09;100601.94;4987362;28;20627;-67
2023/08/15 09:00:09;;;;;;;2.50;2.40;;;38.70;66.70;;;39.32;35.76;100611.16;4985569;28;20666;-68
2023/08/15 09:02:36;;;;;;;3.00;1.93;;;38.90;66.80;;;39.74;35.08;100610.09;4991396;28;21179;-67
2023/08/15 09:05:07;;;;;;;1.80;1.63;;;39.20;66.70;;;40.40;34.43;100604.06;4988971;28;20655;-70
2023/08/15 09:07:35;;;;;;;1.90;1.80;;;39.60;66.30;;;40.79;33.85;100609.72;4987544;28;20745;-68
2023/08/15 09:10:04;;;;;;;1.80;1.80;;;39.90;66.10;;;40.50;34.13;100605.78;4990091;28;20663;-67
2023/08/15 09:12:36;;;;;;;2.33;2.13;;;39.60;65.60;;;40.15;34.81;100602.72;4977610;28;20925;-70
2023/08/15 09:15:08;;;;;;;2.67;2.47;;;39.30;66.70;;;39.65;35.27;100597.47;4987011;28;20698;-67
2023/08/15 09:17:39;;;;;;;2.80;2.50;;;38.90;66.90;;;38.91;36.65;100601.25;4986190;28;20694;-68
2023/08/15 09:20:14;;;;;;;3.40;2.10;;;38.20;67.90;;;38.25;37.56;100602.19;4987448;28;20666;-68
2023/08/15 09:22:45;;;;;;;2.43;2.23;;;37.60;69.50;;;37.28;39.68;100590.75;4989704;28;20653;-71
2023/08/15 09:25:15;;;;;;;3.00;2.70;;;36.70;70.70;;;36.43;41.29;100599.56;4988777;28;20737;-66
2023/08/15 09:27:43;;;;;;;2.30;2.20;;;35.90;72.50;;;35.71;42.22;100592.00;4985351;28;21062;-68
2023/08/15 09:30:13;;;;;;;2.07;1.97;;;35.10;73.90;;;35.21;43.79;100606.44;4986349;28;20673;-69
2023/08/15 09:32:42;;;;;;;1.97;1.93;;;34.70;75.70;;;34.85;44.70;100600.19;4990807;28;20664;-67
2023/08/15 09:35:12;;;;;;;2.70;2.60;;;34.20;76.70;;;34.46;45.46;100598.22;4988828;28;20670;-67
2023/08/15 09:37:44;;;;;;;2.13;2.13;;;33.90;78.20;;;34.11;45.98;100593.50;4989633;28;20630;-67
2023/08/15 09:40:18;;;;;;;2.17;2.07;;;33.50;78.70;;;33.89;46.43;100584.72;4985419;28;21160;-68
2023/08/15 09:42:45;;;;;;;2.33;2.17;;;33.20;79.80;;;33.58;47.66;100592.66;4985435;28;20690;-68
2023/08/15 09:45:14;;;;;;;2.37;2.20;;;33.00;80.90;;;33.39;48.47;100594.16;4977705;28;20748;-68
2023/08/15 09:47:43;;;;;;;2.37;2.17;;;32.70;82.10;;;33.26;48.22;100597.34;4989924;28;20630;-67
2023/08/15 09:50:13;;;;;;;2.50;2.40;;;32.60;82.80;;;33.18;48.72;100588.88;4986708;28;20763;-71
2023/08/15 09:52:45;;;;;;;2.27;2.10;;;32.50;83.70;;;33.21;49.30;100585.66;4990806;28;20682;-67
2023/08/15 09:55:19;;;;;;;2.20;2.10;;;32.50;84.30;;;33.23;48.57;100588.91;4987946;28;20776;-67
2023/08/15 09:57:46;;;;;;;2.23;2.10;;;32.40;84.50;;;33.25;48.00;100594.88;4985068;28;21319;-67
2023/08/15 10:00:17;;;;;;;2.60;2.40;;;32.40;84.10;;;33.32;47.57;100600.88;4986162;28;20657;-68
2023/08/15 10:02:59;;;;;;;2.07;1.97;;;32.50;83.70;;;33.26;48.78;100608.16;5002780;28;20633;-68
2023/08/15 10:05:33;;;;;;;2.20;2.10;;;32.50;84.50;;;33.21;48.69;100604.56;4987565;28;20637;-66
2023/08/15 10:08:01;;;;;;;2.93;2.73;;;32.50;84.70;;;33.08;48.64;100616.66;4987912;28;20642;-68
2023/08/15 10:10:31;;;;;;;1.87;1.83;;;32.40;84.60;;;33.04;48.44;100620.94;4991820;28;21137;-70
2023/08/15 10:12:59;;;;;;;2.30;2.20;;;32.40;85.50;;;33.07;48.55;100635.84;5001655;28;20642;-68
2023/08/15 10:15:28;;;;;;;2.80;2.60;;;32.30;85.60;;;33.04;48.74;100631.75;4992552;28;20662;-68
2023/08/15 10:17:57;;;;;;;2.53;2.33;;;32.30;85.80;;;32.95;48.78;100638.66;4985501;28;20672;-68